Time;durP1;ratioP1;P1;durP2;ratioP2;P2;SDS_P1;SDS_P2;PMS_P1;PMS_P2;Temp;Humidity;BMP_temperature;BMP_pressure;BME280_temperature;BME280_humidity;BME280_pressure;Samples;Min_cycle;Max_cycle;Signal;HPM_P1;HPM_P2
2021/03/03 00:01:13;;;;;;;39.78;25.95;;;7.20;99.90;;;;;;5117289;28;20431;-49
2021/03/03 00:03:39;;;;;;;35.15;24.77;;;7.20;99.90;;;;;;5114905;28;20062;-49
2021/03/03 00:06:07;;;;;;;40.55;30.20;;;7.20;99.90;;;;;;5117212;27;20048;-49
2021/03/03 00:08:33;;;;;;;36.53;25.80;;;7.20;99.90;;;;;;5117215;28;20058;-49
2021/03/03 00:10:59;;;;;;;41.03;28.00;;;7.20;99.90;;;;;;5117044;28;20474;-49
2021/03/03 00:13:25;;;;;;;41.90;27.95;;;7.30;99.90;;;;;;5116859;28;20031;-49
2021/03/03 00:15:51;;;;;;;39.83;27.30;;;7.20;99.90;;;;;;5097889;28;20047;-49
2021/03/03 00:18:16;;;;;;;45.03;30.60;;;7.30;99.90;;;;;;5116575;28;20035;-49
2021/03/03 00:20:42;;;;;;;43.25;28.92;;;7.30;99.90;;;;;;5116814;28;20023;-49
2021/03/03 00:23:08;;;;;;;43.78;30.00;;;7.40;99.90;;;;;;5116536;28;20077;-49
2021/03/03 00:25:34;;;;;;;42.67;28.33;;;7.40;99.90;;;;;;5117268;28;20028;-49
2021/03/03 00:27:59;;;;;;;37.20;27.13;;;7.40;99.90;;;;;;5116624;28;20055;-49
2021/03/03 00:30:25;;;;;;;38.63;25.45;;;7.30;99.90;;;;;;5116827;28;20035;-49
2021/03/03 00:32:51;;;;;;;40.97;27.25;;;7.20;99.90;;;;;;5116576;28;20102;-49
2021/03/03 00:35:17;;;;;;;35.72;25.35;;;7.10;99.90;;;;;;5116757;28;20519;-49
2021/03/03 00:37:42;;;;;;;31.67;22.40;;;7.00;99.90;;;;;;5116232;28;20020;-49
2021/03/03 00:40:09;;;;;;;37.35;23.38;;;7.10;99.90;;;;;;5116386;28;20468;-50
2021/03/03 00:42:35;;;;;;;39.28;27.30;;;7.10;99.90;;;;;;5116454;28;20072;-49
2021/03/03 00:45:01;;;;;;;46.10;29.45;;;7.00;99.90;;;;;;5116425;28;20028;-48
2021/03/03 00:47:27;;;;;;;51.55;28.83;;;7.00;99.90;;;;;;5115610;28;20066;-49
2021/03/03 00:49:53;;;;;;;36.80;24.70;;;7.10;99.90;;;;;;5116718;28;20426;-49
2021/03/03 00:52:18;;;;;;;37.83;24.48;;;7.00;99.90;;;;;;5116021;28;20078;-48
2021/03/03 00:54:44;;;;;;;54.38;33.38;;;7.00;99.90;;;;;;5116458;28;20031;-49
2021/03/03 00:57:10;;;;;;;59.33;32.47;;;7.00;99.90;;;;;;5116141;28;20019;-49
2021/03/03 00:59:36;;;;;;;43.58;28.25;;;7.00;99.90;;;;;;5097195;28;20074;-49
2021/03/03 01:02:02;;;;;;;44.38;28.23;;;6.90;99.90;;;;;;5096785;28;20315;-49
2021/03/03 01:04:27;;;;;;;52.05;32.47;;;6.90;99.90;;;;;;5115890;28;20032;-48
2021/03/03 01:06:53;;;;;;;59.83;34.88;;;6.70;99.90;;;;;;5115854;28;20028;-49
2021/03/03 01:09:19;;;;;;;52.00;31.25;;;6.70;99.90;;;;;;5096984;28;20051;-49
2021/03/03 01:11:45;;;;;;;55.55;31.75;;;6.80;99.90;;;;;;5113780;28;20390;-49
2021/03/03 01:14:10;;;;;;;49.28;30.25;;;6.80;99.90;;;;;;5116136;28;20035;-48
2021/03/03 01:16:36;;;;;;;57.33;33.67;;;6.90;99.90;;;;;;5115427;28;20027;-49
2021/03/03 01:19:02;;;;;;;57.83;33.40;;;7.00;99.90;;;;;;5115847;28;20071;-49
2021/03/03 01:21:28;;;;;;;49.63;30.48;;;7.00;99.90;;;;;;5072700;28;20503;-49
2021/03/03 01:23:54;;;;;;;57.58;35.50;;;6.90;99.90;;;;;;5072753;28;20039;-49
2021/03/03 01:26:19;;;;;;;62.47;35.50;;;6.40;99.90;;;;;;5072541;28;20029;-49
2021/03/03 01:28:45;;;;;;;54.45;33.88;;;6.40;99.90;;;;;;5072869;28;20037;-50
2021/03/03 01:31:11;;;;;;;59.20;35.38;;;6.30;99.90;;;;;;5072680;28;20040;-50
2021/03/03 01:33:37;;;;;;;52.38;30.95;;;;;;;;;;5055995;28;20078;-49
2021/03/03 01:36:03;;;;;;;46.65;29.30;;;5.80;99.90;;;;;;5072537;28;20044;-49
2021/03/03 01:38:29;;;;;;;44.65;28.60;;;5.70;99.90;;;;;;5072333;28;20036;-48
2021/03/03 01:40:55;;;;;;;39.88;25.58;;;5.90;99.90;;;;;;5072444;28;20033;-49
2021/03/03 01:43:21;;;;;;;37.80;24.60;;;6.00;99.90;;;;;;5055304;28;20036;-49
2021/03/03 01:45:49;;;;;;;38.75;25.83;;;6.00;99.90;;;;;;5072557;28;20359;-49
2021/03/03 01:48:15;;;;;;;36.05;23.92;;;6.10;99.90;;;;;;5072183;28;20059;-49
2021/03/03 01:50:41;;;;;;;35.40;23.33;;;6.00;99.90;;;;;;5072502;28;20032;-49
2021/03/03 01:53:07;;;;;;;29.88;21.70;;;6.00;99.90;;;;;;5105501;28;20043;-49
2021/03/03 01:55:33;;;;;;;25.40;18.45;;;5.60;99.90;;;;;;5114744;28;20516;-49
2021/03/03 01:58:00;;;;;;;25.55;17.48;;;5.10;99.90;;;;;;5114486;28;20104;-49
2021/03/03 02:00:26;;;;;;;25.60;17.95;;;;;;;;;;5114518;28;20080;-50
2021/03/03 02:02:52;;;;;;;25.58;17.35;;;4.20;99.90;;;;;;5114545;28;20084;-49
2021/03/03 02:05:18;;;;;;;21.73;15.40;;;3.90;99.90;;;;;;5095973;28;20424;-50
2021/03/03 02:07:50;;;;;;;25.23;16.25;;;;;;;;;;5114620;28;20024;-49
2021/03/03 02:10:37;;;;;;;22.55;16.05;;;4.00;99.90;;;;;;5114932;28;20028;-49
2021/03/03 02:13:10;;;;;;;23.33;15.80;;;4.10;99.90;;;;;;5114703;28;20088;-50
2021/03/03 02:15:39;;;;;;;22.27;15.77;;;4.00;99.90;;;;;;5114751;28;20031;-49
2021/03/03 02:18:07;;;;;;;21.70;15.05;;;4.00;99.90;;;;;;5095440;28;20028;-49
2021/03/03 02:20:47;;;;;;;23.25;14.52;;;4.10;99.90;;;;;;5114687;28;20055;-49
2021/03/03 02:23:54;;;;;;;21.75;14.52;;;4.10;99.90;;;;;;5114218;28;20475;-49
2021/03/03 02:26:22;;;;;;;21.08;14.70;;;;;;;;;;5071594;28;20079;-49
2021/03/03 02:28:49;;;;;;;19.42;14.23;;;4.90;99.90;;;;;;5071605;28;20035;-50
2021/03/03 02:31:17;;;;;;;24.80;16.05;;;5.00;99.90;;;;;;5071583;28;20032;-50
2021/03/03 02:33:44;;;;;;;25.20;17.17;;;5.30;99.90;;;;;;5071648;28;20028;-49
2021/03/03 02:36:12;;;;;;;24.92;17.55;;;5.40;99.90;;;;;;5071627;28;20025;-49
2021/03/03 02:38:41;;;;;;;24.30;16.77;;;5.50;99.90;;;;;;5071700;28;20041;-49
2021/03/03 02:41:10;;;;;;;24.83;17.10;;;5.50;99.90;;;;;;5071184;28;20024;-50
2021/03/03 02:43:38;;;;;;;24.38;16.38;;;5.60;99.90;;;;;;5071427;28;20036;-49
2021/03/03 02:46:06;;;;;;;23.23;15.85;;;5.60;99.90;;;;;;5071591;28;20025;-49
2021/03/03 02:48:31;;;;;;;23.85;15.73;;;5.60;99.90;;;;;;5071611;28;20091;-49
2021/03/03 02:50:57;;;;;;;19.30;14.68;;;5.50;99.90;;;;;;5071362;28;20072;-49
2021/03/03 02:53:23;;;;;;;25.00;15.88;;;5.60;99.90;;;;;;5054568;28;20531;-49
2021/03/03 02:55:49;;;;;;;20.60;15.20;;;5.60;99.90;;;;;;5071543;28;20040;-49
2021/03/03 02:58:15;;;;;;;22.98;16.27;;;5.70;99.90;;;;;;5071371;28;20033;-49
2021/03/03 03:00:41;;;;;;;22.25;15.13;;;5.80;99.90;;;;;;5071382;28;20025;-49
2021/03/03 03:03:40;;;;;;;21.95;14.82;;;5.80;99.90;;;;;;5094733;28;20042;-49
2021/03/03 03:06:12;;;;;;;25.67;15.90;;;5.80;99.90;;;;;;5113806;28;20024;-49
2021/03/03 03:08:40;;;;;;;24.63;15.13;;;5.80;99.90;;;;;;5114161;28;20459;-49
2021/03/03 03:11:09;;;;;;;24.45;18.27;;;5.90;99.90;;;;;;5117017;28;20031;-49
2021/03/03 03:13:36;;;;;;;25.98;19.45;;;5.80;99.90;;;;;;5099076;28;20039;-49
2021/03/03 03:16:03;;;;;;;27.02;19.92;;;5.20;99.90;;;;;;5118121;28;20125;-49
2021/03/03 03:18:36;;;;;;;27.95;20.50;;;5.20;99.90;;;;;;5082209;28;20040;-49
2021/03/03 03:21:03;;;;;;;24.00;16.30;;;;;;;;;;5117896;27;20032;-49
2021/03/03 03:23:30;;;;;;;24.52;15.32;;;3.60;99.90;;;;;;5117797;28;20063;-49
2021/03/03 03:25:56;;;;;;;25.52;16.13;;;3.00;99.90;;;;;;5117676;28;20451;-49
2021/03/03 03:28:23;;;;;;;25.17;16.35;;;2.80;99.90;;;;;;5117846;28;20504;-49
2021/03/03 03:30:52;;;;;;;25.88;16.80;;;;;;;;;;5117715;28;20035;-49
2021/03/03 03:33:20;;;;;;;22.77;16.17;;;2.70;99.90;;;;;;5118124;28;20028;-49
2021/03/03 03:35:46;;;;;;;27.33;17.35;;;2.70;99.90;;;;;;5117838;28;20049;-49
2021/03/03 03:38:12;;;;;;;26.77;16.17;;;2.90;99.90;;;;;;5117404;28;20044;-49
2021/03/03 03:40:38;;;;;;;23.23;15.77;;;3.20;99.90;;;;;;5117490;28;20118;-49
2021/03/03 03:43:07;;;;;;;23.50;15.25;;;3.20;99.90;;;;;;5117498;28;20102;-50
2021/03/03 03:45:34;;;;;;;24.35;16.60;;;3.10;99.90;;;;;;5117508;28;20454;-49
2021/03/03 03:48:01;;;;;;;21.70;13.65;;;3.00;99.90;;;;;;5117017;28;20051;-49
2021/03/03 03:50:27;;;;;;;22.48;15.20;;;3.10;99.90;;;;;;5117333;28;20024;-49
2021/03/03 03:52:55;;;;;;;21.92;14.40;;;3.00;99.90;;;;;;5117339;28;20057;-48
2021/03/03 03:55:36;;;;;;;22.17;14.23;;;3.10;99.90;;;;;;5117115;27;20019;-49
2021/03/03 03:58:03;;;;;;;21.60;14.07;;;3.10;99.90;;;;;;5117490;28;20044;-50
2021/03/03 04:00:30;;;;;;;20.80;14.65;;;3.20;99.90;;;;;;5117208;28;20170;-49
2021/03/03 04:02:57;;;;;;;21.55;13.75;;;3.40;99.90;;;;;;5116805;28;20134;-49
2021/03/03 04:05:23;;;;;;;19.45;13.38;;;;;;;;;;5117435;28;20016;-49
2021/03/03 04:07:49;;;;;;;19.17;13.13;;;3.80;99.90;;;;;;5116995;28;20023;-49
2021/03/03 04:10:18;;;;;;;18.85;14.15;;;3.70;99.90;;;;;;5116874;28;20032;-49
2021/03/03 04:12:44;;;;;;;20.40;12.85;;;3.60;99.90;;;;;;5116902;28;20030;-49
2021/03/03 04:15:10;;;;;;;21.55;14.38;;;3.60;99.90;;;;;;5116735;28;20393;-49
2021/03/03 04:17:38;;;;;;;16.92;12.63;;;3.60;99.90;;;;;;5081380;28;20057;-49
2021/03/03 04:20:06;;;;;;;25.25;17.45;;;3.20;99.90;;;;;;5116747;28;20093;-49
2021/03/03 04:22:32;;;;;;;22.27;16.63;;;;;;;;;;5080013;28;20035;-50
2021/03/03 04:24:58;;;;;;;24.15;15.55;;;2.90;99.90;;;;;;5117075;28;20374;-49
2021/03/03 04:27:23;;;;;;;20.63;14.50;;;3.00;99.90;;;;;;5116501;28;20024;-49
2021/03/03 04:29:49;;;;;;;18.15;12.98;;;3.20;99.90;;;;;;5117055;27;20035;-49
2021/03/03 04:32:15;;;;;;;18.45;13.57;;;3.30;99.90;;;;;;5116414;28;20024;-49
2021/03/03 04:34:40;;;;;;;19.52;13.70;;;3.80;99.90;;;;;;5116598;28;20111;-49
2021/03/03 04:37:06;;;;;;;18.65;13.52;;;4.00;99.90;;;;;;5116706;28;20035;-49
2021/03/03 04:39:32;;;;;;;24.77;17.92;;;4.10;99.90;;;;;;5116370;28;20027;-61
2021/03/03 04:41:58;;;;;;;21.90;14.93;;;4.10;99.90;;;;;;5116242;28;20069;-49
2021/03/03 04:44:23;;;;;;;22.50;13.73;;;4.30;99.90;;;;;;5116287;28;20028;-48
2021/03/03 04:46:49;;;;;;;18.65;13.68;;;4.50;99.90;;;;;;5116380;28;20436;-49
2021/03/03 04:49:15;;;;;;;19.65;13.50;;;4.60;99.90;;;;;;5116383;28;20043;-49
2021/03/03 04:51:40;;;;;;;25.85;14.85;;;4.70;99.90;;;;;;5096621;28;20036;-49
2021/03/03 04:54:06;;;;;;;20.98;14.88;;;4.80;99.90;;;;;;5115837;28;20054;-49
2021/03/03 04:56:32;;;;;;;27.55;16.38;;;4.80;99.90;;;;;;5115585;28;20024;-49
2021/03/03 04:58:58;;;;;;;22.92;15.95;;;4.90;99.90;;;;;;5115639;28;20092;-49
2021/03/03 05:01:23;;;;;;;21.48;14.73;;;4.80;99.90;;;;;;5119371;27;20025;-49
2021/03/03 05:03:49;;;;;;;20.33;15.02;;;4.80;99.90;;;;;;5136413;27;20034;-49
2021/03/03 05:06:15;;;;;;;21.60;15.55;;;4.40;99.90;;;;;;5136483;27;20140;-49
2021/03/03 05:08:40;;;;;;;26.52;18.52;;;4.10;99.90;;;;;;5136372;27;20123;-49
2021/03/03 05:11:06;;;;;;;27.88;18.35;;;3.90;99.90;;;;;;5136313;27;20038;-49
2021/03/03 05:13:32;;;;;;;27.02;19.25;;;3.50;99.90;;;;;;5136311;27;20526;-49
2021/03/03 05:15:58;;;;;;;30.30;18.90;;;3.60;99.90;;;;;;5136262;27;20111;-49
2021/03/03 05:18:24;;;;;;;26.90;19.23;;;3.40;99.90;;;;;;5117099;27;20047;-49
2021/03/03 05:20:51;;;;;;;36.67;24.13;;;3.10;99.90;;;;;;5136019;27;20422;-49
2021/03/03 05:23:27;;;;;;;39.03;25.58;;;2.80;99.90;;;;;;5116949;27;20077;-49
2021/03/03 05:25:52;;;;;;;44.97;29.77;;;3.40;99.90;;;;;;5136382;27;20023;-49
2021/03/03 05:28:18;;;;;;;45.67;30.88;;;3.80;99.90;;;;;;5136101;27;20053;-49
2021/03/03 05:30:44;;;;;;;40.17;29.00;;;4.10;99.90;;;;;;5136345;27;20358;-49
2021/03/03 05:33:09;;;;;;;37.20;27.00;;;4.00;99.90;;;;;;5135865;27;20054;-49
2021/03/03 05:35:35;;;;;;;65.30;45.55;;;3.80;99.90;;;;;;5135871;27;20122;-49
2021/03/03 05:38:01;;;;;;;56.67;38.70;;;3.80;99.90;;;;;;5136187;27;20038;-48
2021/03/03 05:40:27;;;;;;;43.17;32.30;;;4.10;99.90;;;;;;5133909;27;20358;-49
2021/03/03 05:42:54;;;;;;;40.53;25.08;;;4.40;99.90;;;;;;5135600;27;20102;-49
2021/03/03 05:45:20;;;;;;;36.53;23.85;;;4.60;99.90;;;;;;5135844;27;20034;-49
2021/03/03 05:47:48;;;;;;;38.92;29.55;;;4.90;99.90;;;;;;5135505;27;20047;-50
2021/03/03 05:50:16;;;;;;;34.38;25.25;;;4.60;99.90;;;;;;5135643;27;20023;-49
2021/03/03 05:52:42;;;;;;;29.85;23.02;;;4.60;99.90;;;;;;5135631;27;20026;-49
2021/03/03 05:55:09;;;;;;;26.55;19.58;;;4.50;99.90;;;;;;5135273;27;20069;-53
2021/03/03 05:57:35;;;;;;;29.30;19.02;;;4.70;99.90;;;;;;5099393;27;20035;-49
2021/03/03 06:00:03;;;;;;;23.40;16.75;;;4.80;99.90;;;;;;5135601;27;20478;-48
2021/03/03 06:02:32;;;;;;;23.92;16.15;;;4.90;99.90;;;;;;5099030;27;20478;-49
2021/03/03 06:04:59;;;;;;;34.05;23.23;;;4.90;99.90;;;;;;5135690;27;20027;-48
2021/03/03 06:07:26;;;;;;;28.48;20.13;;;5.10;99.90;;;;;;5116233;27;20423;-49
2021/03/03 06:09:52;;;;;;;33.25;23.95;;;5.10;99.90;;;;;;5135295;27;20466;-49
2021/03/03 06:12:18;;;;;;;36.97;23.23;;;5.70;99.90;;;;;;5133138;27;20042;-49
2021/03/03 06:14:44;;;;;;;54.63;33.97;;;;;;;;;;5135022;27;20592;-50
2021/03/03 06:17:10;;;;;;;58.67;34.50;;;;;;;;;;5134920;27;20023;-49
2021/03/03 06:19:36;;;;;;;47.72;29.17;;;;;;;;;;5115818;27;20085;-49
2021/03/03 06:22:31;;;;;;;67.00;35.35;;;;;;;;;;5134979;27;20046;-50
2021/03/03 06:24:58;;;;;;;59.70;43.95;;;;;;;;;;5051785;28;20167;-49
2021/03/03 06:27:25;;;;;;;58.13;33.15;;;11.00;99.90;;;;;;5051404;28;20073;-50
2021/03/03 06:30:08;;;;;;;43.72;25.17;;;;;;;;;;5049033;28;20041;-49
2021/03/03 06:33:00;;;;;;;48.13;32.75;;;11.30;97.60;;;;;;5051307;28;20033;-51
2021/03/03 06:35:39;;;;;;;37.78;26.83;;;11.70;96.90;;;;;;5051266;28;20041;-51
2021/03/03 06:38:08;;;;;;;31.40;23.63;;;12.50;94.10;;;;;;5018305;28;20065;-52
2021/03/03 06:40:34;;;;;;;26.67;19.60;;;13.20;92.80;;;;;;5051278;28;20600;-51
2021/03/03 06:43:17;;;;;;;25.33;18.15;;;;;;;;;;5051333;28;20041;-51
2021/03/03 06:45:43;;;;;;;25.58;16.85;;;;;;;;;;5050743;28;20025;-51
2021/03/03 06:48:10;;;;;;;23.42;17.13;;;;;;;;;;5018080;28;20048;-51
2021/03/03 06:50:37;;;;;;;19.90;15.95;;;15.50;90.90;;;;;;5051123;28;20065;-52
2021/03/03 06:53:03;;;;;;;22.92;17.73;;;;;;;;;;5051003;28;20054;-51
2021/03/03 06:55:46;;;;;;;24.50;16.10;;;16.70;99.90;;;;;;5051069;28;20037;-51
2021/03/03 06:58:28;;;;;;;23.02;16.02;;;17.40;94.20;;;;;;5051254;28;20037;-52
2021/03/03 07:00:57;;;;;;;24.15;16.52;;;18.00;94.60;;;;;;5043846;28;20521;-51
2021/03/03 07:03:25;;;;;;;26.88;17.38;;;;;;;;;;5134424;27;20027;-52
2021/03/03 07:05:51;;;;;;;28.48;17.17;;;;;;;;;;5134482;28;20019;-51
2021/03/03 07:08:18;;;;;;;23.80;16.70;;;18.70;75.90;;;;;;5134739;28;20035;-51
2021/03/03 07:10:45;;;;;;;25.27;18.33;;;19.00;59.40;;;;;;5134469;27;20420;-51
2021/03/03 07:13:11;;;;;;;25.42;19.30;;;;;;;;;;5114906;28;20057;-52
2021/03/03 07:15:37;;;;;;;22.85;17.88;;;;;;;;;;5134258;28;20027;-52
2021/03/03 07:18:03;;;;;;;26.55;19.50;;;19.50;93.90;;;;;;5134254;28;20055;-51
2021/03/03 07:20:29;;;;;;;30.05;19.80;;;;;;;;;;5081008;28;20131;-52
2021/03/03 07:22:57;;;;;;;28.98;19.73;;;;;;;;;;5134313;28;20028;-52
2021/03/03 07:25:23;;;;;;;26.52;19.10;;;20.00;72.60;;;;;;5134052;27;20351;-49
2021/03/03 07:27:50;;;;;;;28.58;20.52;;;;;;;;;;5133964;27;20404;-50
2021/03/03 07:30:21;;;;;;;27.55;19.92;;;20.40;55.40;;;;;;5134222;28;20023;-49
2021/03/03 07:32:47;;;;;;;27.52;21.83;;;20.70;55.40;;;;;;5132666;28;20435;-51
2021/03/03 07:35:14;;;;;;;30.20;21.63;;;;;;;;;;5133977;27;20072;-49
2021/03/03 07:37:54;;;;;;;26.17;21.35;;;21.40;54.10;;;;;;5133829;28;20019;-49
2021/03/03 07:40:23;;;;;;;28.38;20.75;;;21.50;53.40;;;;;;5134068;27;20102;-50
2021/03/03 07:42:54;;;;;;;31.40;21.05;;;;;;;;;;5114137;28;20130;-50
2021/03/03 07:45:21;;;;;;;25.90;21.08;;;;;;;;;;5132552;28;20118;-50
2021/03/03 07:47:49;;;;;;;24.80;19.33;;;22.40;50.90;;;;;;5132196;28;20051;-50
2021/03/03 07:50:20;;;;;;;28.15;20.30;;;22.90;50.90;;;;;;5133552;27;20465;-49
2021/03/03 07:52:49;;;;;;;28.17;20.65;;;23.10;49.80;;;;;;5133359;28;20027;-51
2021/03/03 07:55:16;;;;;;;25.90;20.38;;;23.00;50.00;;;;;;5134019;27;20034;-51
2021/03/03 07:57:50;;;;;;;35.65;25.92;;;23.40;48.80;;;;;;5135986;27;20070;-50
2021/03/03 08:00:37;;;;;;;43.72;32.92;;;24.00;48.30;;;;;;5137776;27;20027;-50
2021/03/03 08:03:04;;;;;;;57.90;40.95;;;24.10;47.70;;;;;;5117871;27;20043;-51
2021/03/03 08:05:33;;;;;;;53.80;43.35;;;;;;;;;;5100941;27;20039;-51
2021/03/03 08:08:16;;;;;;;53.95;42.95;;;24.40;45.90;;;;;;5118025;27;20043;-50
2021/03/03 08:10:44;;;;;;;48.80;33.90;;;25.00;46.60;;;;;;5137289;27;20126;-51
2021/03/03 08:13:32;;;;;;;40.72;31.10;;;25.10;45.80;;;;;;5137253;27;20030;-50
2021/03/03 08:16:02;;;;;;;42.50;28.75;;;25.00;45.90;;;;;;5137317;27;20110;-51
2021/03/03 08:18:31;;;;;;;38.80;24.60;;;24.80;45.40;;;;;;5137114;27;20031;-50
2021/03/03 08:20:58;;;;;;;33.50;26.10;;;24.90;45.30;;;;;;5137085;27;20113;-51
2021/03/03 08:23:33;;;;;;;31.15;23.77;;;25.00;45.60;;;;;;5137095;27;20031;-51
2021/03/03 08:26:15;;;;;;;25.13;21.00;;;25.00;45.50;;;;;;5136972;27;20027;-51
2021/03/03 08:28:44;;;;;;;28.48;23.15;;;25.00;44.90;;;;;;5137042;27;20469;-51
2021/03/03 08:31:15;;;;;;;35.30;29.05;;;25.30;46.10;;;;;;5135398;27;20423;-50
2021/03/03 08:33:54;;;;;;;37.35;29.98;;;25.40;45.80;;;;;;5133135;27;21205;-51
2021/03/03 08:36:20;;;;;;;54.60;38.22;;;;;;;;;;5115565;27;20352;-51
2021/03/03 08:38:49;;;;;;;168.05;91.55;;;26.20;69.50;;;;;;5116174;28;20031;-50
2021/03/03 08:41:15;;;;;;;40.30;30.77;;;26.20;80.70;;;;;;5116056;28;20051;-51
2021/03/03 08:43:46;;;;;;;52.35;31.90;;;26.50;44.00;;;;;;5114056;28;20067;-51
2021/03/03 08:46:21;;;;;;;37.80;25.40;;;26.30;43.60;;;;;;5116245;28;20030;-51
2021/03/03 08:48:53;;;;;;;26.65;23.10;;;26.30;43.30;;;;;;5115863;28;20071;-51
2021/03/03 08:51:24;;;;;;;;;;;25.90;43.30;;;;;;5116446;28;20077;-51
2021/03/03 08:53:53;;;;;;;26.03;21.93;;;25.80;43.20;;;;;;5114079;28;19907;-51
2021/03/03 08:56:38;;;;;;;28.10;21.48;;;25.50;42.50;;;;;;5115934;28;20035;-51
2021/03/03 08:59:33;;;;;;;28.08;23.50;;;25.00;43.10;;;;;;5115641;28;20039;-51
2021/03/03 09:02:12;;;;;;;28.42;22.15;;;24.70;43.20;;;;;;5115755;28;20077;-51
2021/03/03 09:04:50;;;;;;;32.40;24.65;;;24.70;43.50;;;;;;5115922;27;20546;-50
2021/03/03 09:07:22;;;;;;;30.33;24.13;;;;;;;;;;5115069;28;20459;-50
2021/03/03 09:09:52;;;;;;;29.33;23.77;;;25.90;67.20;;;;;;5115474;28;20068;-51
2021/03/03 09:12:18;;;;;;;29.23;22.20;;;;;;;;;;5115755;28;20019;-51
2021/03/03 09:14:46;;;;;;;37.67;26.15;;;25.90;54.30;;;;;;5115426;28;20019;-51
2021/03/03 09:17:14;;;;;;;45.03;30.92;;;26.50;54.40;;;;;;5096326;28;20063;-51
2021/03/03 09:19:41;;;;;;;27.67;21.67;;;26.00;42.90;;;;;;5096544;28;20035;-50
2021/03/03 09:22:29;;;;;;;56.28;39.80;;;26.20;45.50;;;;;;5114730;28;20035;-51
2021/03/03 09:24:56;;;;;;;32.20;26.48;;;;;;;;;;5115702;28;20031;-51
2021/03/03 09:27:23;;;;;;;34.83;26.35;;;;;;;;;;5115312;28;20031;-50
2021/03/03 09:29:49;;;;;;;32.53;26.10;;;27.50;40.80;;;;;;5115291;28;20062;-51
2021/03/03 09:32:23;;;;;;;41.55;31.25;;;27.80;40.60;;;;;;5114906;28;20768;-50
2021/03/03 09:35:05;;;;;;;36.50;26.48;;;27.30;52.00;;;;;;5115324;28;20034;-50
2021/03/03 09:37:42;;;;;;;35.53;25.50;;;27.10;40.70;;;;;;5096079;28;20039;-51
2021/03/03 09:40:14;;;;;;;35.42;26.50;;;26.90;40.70;;;;;;5127454;27;20111;-50
2021/03/03 09:42:46;;;;;;;31.77;25.45;;;27.30;41.10;;;;;;5115200;28;20073;-50
2021/03/03 09:45:17;;;;;;;29.88;22.15;;;27.60;41.60;;;;;;5115011;27;20028;-50
2021/03/03 09:47:43;;;;;;;30.67;23.50;;;27.20;40.90;;;;;;5114747;28;20490;-50
2021/03/03 09:50:17;;;;;;;29.08;22.50;;;27.00;40.80;;;;;;5115128;28;20027;-50
2021/03/03 09:52:45;;;;;;;26.55;21.67;;;27.30;41.10;;;;;;5115076;28;20060;-51
2021/03/03 09:55:12;;;;;;;26.75;22.00;;;;;;;;;;5114415;28;20466;-50
2021/03/03 09:57:39;;;;;;;28.33;21.10;;;26.60;77.70;;;;;;5114694;28;20031;-51
2021/03/03 10:00:11;;;;;;;24.55;19.52;;;27.10;47.50;;;;;;5114736;28;20024;-51
2021/03/03 10:02:37;;;;;;;;;;;27.10;41.30;;;;;;5096370;28;20285;-50
2021/03/03 10:05:04;;;;;;;22.30;17.55;;;;;;;;;;5114607;28;19954;-50
2021/03/03 10:07:30;;;;;;;24.38;18.35;;;27.50;78.80;;;;;;5114679;28;20399;-51
2021/03/03 10:10:00;;;;;;;21.45;17.40;;;27.70;48.00;;;;;;5114566;28;20028;-51
2021/03/03 10:12:37;;;;;;;23.90;17.02;;;27.60;44.90;;;;;;5095607;28;20475;-51
2021/03/03 10:15:07;;;;;;;26.33;23.17;;;27.40;53.20;;;;;;5114593;28;20035;-51
2021/03/03 10:17:40;;;;;;;20.10;15.80;;;28.10;44.80;;;;;;5095219;28;20043;-50
2021/03/03 10:20:12;;;;;;;22.15;16.30;;;;;;;;;;5113707;28;20514;-50
2021/03/03 10:22:43;;;;;;;18.35;16.10;;;;;;;;;;5114385;28;20035;-50
2021/03/03 10:25:12;;;;;;;19.13;16.37;;;27.70;40.40;;;;;;5114138;28;20027;-51
2021/03/03 10:27:40;;;;;;;17.35;15.48;;;27.50;41.30;;;;;;5095837;28;20032;-51
2021/03/03 10:30:19;;;;;;;18.70;15.82;;;;;;;;;;5114319;28;20465;-51
2021/03/03 10:32:45;;;;;;;18.67;14.93;;;27.20;40.20;;;;;;5095334;28;20042;-50
2021/03/03 10:35:11;;;;;;;20.80;15.57;;;26.90;41.40;;;;;;5114237;28;20351;-50
2021/03/03 10:37:37;;;;;;;21.90;16.73;;;26.80;40.70;;;;;;5114214;28;20115;-51
2021/03/03 10:40:16;;;;;;;17.73;14.77;;;;;;;;;;5120922;27;20027;-50
2021/03/03 10:42:43;;;;;;;26.48;19.52;;;26.20;78.30;;;;;;5097179;27;20475;-50
2021/03/03 10:45:23;;;;;;;20.15;15.68;;;26.90;73.90;;;;;;5134773;27;20470;-51
2021/03/03 10:47:50;;;;;;;18.42;13.93;;;26.40;74.70;;;;;;5114906;27;20130;-50
2021/03/03 10:50:20;;;;;;;17.15;13.63;;;;;;;;;;5115428;28;20051;-50
2021/03/03 10:53:00;;;;;;;19.10;15.60;;;25.50;41.50;;;;;;5134420;27;20070;-50
2021/03/03 10:55:32;;;;;;;15.15;13.18;;;;;;;;;;5134265;27;20103;-50
2021/03/03 10:57:59;;;;;;;18.05;13.43;;;26.50;45.40;;;;;;5134269;28;20122;-50
2021/03/03 11:00:25;;;;;;;16.30;13.55;;;25.90;42.00;;;;;;5134227;27;20037;-50
2021/03/03 11:03:03;;;;;;;18.85;13.82;;;25.80;40.80;;;;;;5045644;28;20043;-50
2021/03/03 11:05:29;;;;;;;15.27;12.35;;;25.60;41.40;;;;;;5113730;28;20032;-50
2021/03/03 11:07:55;;;;;;;15.15;13.20;;;26.10;42.00;;;;;;5114006;28;20399;-50
2021/03/03 11:10:23;;;;;;;16.73;12.38;;;25.80;41.30;;;;;;5094724;28;20074;-50
2021/03/03 11:12:49;;;;;;;14.88;12.52;;;26.10;41.50;;;;;;5114029;28;20051;-50
2021/03/03 11:15:17;;;;;;;17.13;13.40;;;25.90;40.60;;;;;;5114171;28;20028;-50
2021/03/03 11:17:43;;;;;;;14.60;11.95;;;26.20;41.50;;;;;;5113593;28;20391;-50
2021/03/03 11:20:09;;;;;;;20.63;14.27;;;26.60;38.90;;;;;;5094768;28;20044;-50
2021/03/03 11:22:35;;;;;;;17.27;13.55;;;;;;;;;;5113872;28;20024;-50
2021/03/03 11:25:03;;;;;;;15.05;11.80;;;25.90;40.10;;;;;;5113756;28;20039;-50
2021/03/03 11:27:29;;;;;;;15.82;11.55;;;25.50;39.10;;;;;;5113815;28;20039;-50
2021/03/03 11:29:54;;;;;;;14.85;13.13;;;26.60;40.20;;;;;;5094644;28;20036;-50
2021/03/03 11:32:20;;;;;;;17.27;12.50;;;27.00;41.20;;;;;;5116689;28;20027;-50
2021/03/03 11:34:46;;;;;;;15.40;11.50;;;27.30;39.40;;;;;;5117851;28;20028;-50
2021/03/03 11:37:12;;;;;;;14.68;10.52;;;25.80;39.20;;;;;;5117378;28;20023;-49
2021/03/03 11:39:37;;;;;;;15.90;12.80;;;26.00;38.20;;;;;;5117395;28;20168;-50
2021/03/03 11:42:03;;;;;;;16.50;12.55;;;25.70;39.90;;;;;;5117489;28;20028;-49
2021/03/03 11:44:29;;;;;;;17.00;12.65;;;24.80;40.50;;;;;;5081363;28;20042;-50
2021/03/03 11:46:55;;;;;;;15.98;11.95;;;24.50;41.50;;;;;;5117498;28;20127;-49
2021/03/03 11:49:20;;;;;;;19.60;14.20;;;24.90;41.00;;;;;;5098319;28;20051;-51
2021/03/03 11:51:47;;;;;;;15.60;11.88;;;25.00;39.70;;;;;;5117255;28;20073;-51
2021/03/03 11:54:13;;;;;;;17.02;14.07;;;23.80;41.70;;;;;;5117094;28;20031;-51
2021/03/03 11:56:39;;;;;;;15.23;12.43;;;24.60;42.20;;;;;;5117263;28;20051;-50
2021/03/03 11:59:05;;;;;;;16.48;11.60;;;;;;;;;;5116850;28;20039;-51
2021/03/03 12:01:31;;;;;;;15.00;11.45;;;25.90;57.00;;;;;;5116100;28;20478;-50
2021/03/03 12:03:57;;;;;;;15.25;11.20;;;25.80;47.90;;;;;;5114600;28;20036;-51
2021/03/03 12:06:22;;;;;;;14.77;11.77;;;25.50;39.70;;;;;;5117045;28;20035;-50
2021/03/03 12:08:50;;;;;;;17.30;11.95;;;24.80;51.30;;;;;;5116934;28;20040;-50
2021/03/03 12:11:16;;;;;;;13.82;10.15;;;24.70;41.00;;;;;;5116658;28;20035;-51
2021/03/03 12:13:42;;;;;;;14.05;11.20;;;24.20;56.50;;;;;;5116545;28;20032;-50
2021/03/03 12:16:07;;;;;;;14.50;9.90;;;24.10;39.80;;;;;;5115437;28;20122;-50
2021/03/03 12:18:33;;;;;;;12.27;9.55;;;24.40;51.50;;;;;;5116317;28;20138;-50
2021/03/03 12:21:00;;;;;;;10.65;9.00;;;24.40;48.30;;;;;;5096955;28;20036;-50
2021/03/03 12:23:26;;;;;;;13.07;9.77;;;24.70;47.10;;;;;;5097643;28;20043;-50
2021/03/03 12:25:52;;;;;;;16.10;11.98;;;25.20;39.70;;;;;;5115728;28;20346;-51
2021/03/03 12:28:19;;;;;;;13.93;10.27;;;25.40;40.20;;;;;;5116297;28;20030;-50
2021/03/03 12:30:45;;;;;;;13.23;9.52;;;24.60;39.30;;;;;;5115946;28;20386;-50
2021/03/03 12:33:11;;;;;;;12.88;10.00;;;24.60;38.10;;;;;;5115705;28;20024;-50
2021/03/03 12:35:37;;;;;;;12.05;9.90;;;;;;;;;;5116303;28;20019;-51
2021/03/03 12:38:02;;;;;;;14.85;10.10;;;24.50;64.20;;;;;;5096515;28;20105;-50
2021/03/03 12:40:28;;;;;;;12.02;9.32;;;23.90;38.90;;;;;;5115799;28;20028;-50
2021/03/03 12:42:54;;;;;;;14.57;10.07;;;23.70;39.40;;;;;;5115055;28;20050;-51
2021/03/03 12:45:20;;;;;;;13.20;9.88;;;23.20;41.20;;;;;;5115288;28;20347;-50
2021/03/03 12:47:45;;;;;;;10.57;8.98;;;23.20;41.30;;;;;;5115803;28;20179;-50
2021/03/03 12:50:14;;;;;;;14.75;10.02;;;;;;;;;;5115369;28;20020;-50
2021/03/03 12:52:40;;;;;;;12.18;9.15;;;22.10;40.40;;;;;;5115296;28;20031;-50
2021/03/03 12:55:07;;;;;;;12.45;8.95;;;23.30;40.20;;;;;;5115534;28;20036;-51